Kadena Air Base
RODN : now visible

Airfield :











YOU CAN JOIN US ON...

 
LOGIN :

Register | Disclaimer

   EN    FR    IT 

 









Legend :    VFR   Marginal VFR   IFR   Intensive IFR   Very Intensive IFR
Visi :
Ceiling :
>= 8 km
>= 3000ft
5 to 8 km
1000 to 3000 ft
1500m to 5 km
500 to 1000 ft
800 to 1500m
200 to 500 ft
< 800m
< 200 ft
Symbols :   Thunderstorms  Fog  Heavy snow  Heavy precipitations  Wind > 20 kt






- Airport Elevation : 143 ft
- IATA code : DNA


RODN - Kadena Air Base

CURRENT METAR :
  • 281556Z AUTO 05006KT 10SM CLR 26/25 A2968 RMK AO2 SLP055 T02590245 $

EXPIRED METARs :
  • 281456Z AUTO 04006KT 10SM CLR 26/25 A2969 RMK AO2 SLP059 60000 T02630249 403100233 58001 $
  • 281356Z AUTO 04005KT 10SM CLR 25/24 A2970 RMK AO2 SLP062 T02540241 $

TAF TAF RODN
Valid from the 28 at 16:00 until the 29 at 22:00 UTC


281600Z 2816/2922 05012KT 9999 VCSH SCT030 QNH2964INS
BECMG 2823/2824 04012G20KT 9999 VCSH SCT020 QNH2961INS
TEMPO 2800/2906 8000 -SHRA BKN020
BECMG 2906/2907 03012G20KT 9999 VCSH BKN020 QNH2962INS
TEMPO 2907/2913 6000 -SHRA BKN015 TX31/2904Z TN24/2820Z
RJJJ FIR / Asia



MET'MAP, your aeronautical weather chart ! - Copyright ORBIFLY December 2007 - Disclaimer

ORBIFLY MET'MAP TEAM :

Programming & Development : Alexandra Zaïnal
Concept & original design : Baudouin d'Aumeries
Assistance for programming : Marc-Olivier Méhu
Technical & hardware support : Manuel Goepfert

Contact : metmap@orbifly.com




SOURCES & CREDITS :

   NOAA       Earth
Advisory